ABZ weather

Aberdeen Dyce Airport
Aberdeen, Scotland, United Kingdom

Public forecast

Using degrees Celsius for public forecast. Weather courtesy of forecast.io.

Current aviation weather report (METAR) for Aberdeen Dyce Airport

Retrieved 2019/10/15 08:20 UTC (10 minutes ago):

EGPD 150820Z VRB03KT 3000 1100E R34/P1500 VCFG BKN016 07/07 Q1003 TEMPO 5000

Aviation forecast (TAF) for Aberdeen Dyce Airport

Retrieved 2019/10/15 06:00 UTC (2 hours ago):

TAF EGPD 150459Z 1506/1606 32005KT 9999 BKN012 TEMPO 1506/1518 6000 -RADZ BKN008 PROB30 TEMPO 1506/1509 SCT016 PROB40 TEMPO 1509/1516 4000 RADZ BKN004 BECMG 1518/1521 SCT020 TEMPO 1518/1606 BKN012 PROB40 TEMPO 1521/1524 3000 BR BKN006 BECMG 1603/1606 14010KT PROB30 TEMPO 1603/1606 6000 BKN006